Time;durP1;ratioP1;P1;durP2;ratioP2;P2;SDS_P1;SDS_P2;PMS_P1;PMS_P2;Temp;Humidity;BMP_temperature;BMP_pressure;BME280_temperature;BME280_humidity;BME280_pressure;Samples;Min_cycle;Max_cycle;Signal;HPM_P1;HPM_P2
2023/01/31 03:02:00;;;;;;;13.43;12.53;;;1.70;99.90;;;;;;5350924;23;20487;-76
2023/01/31 03:04:31;;;;;;;14.23;13.03;;;1.70;99.90;;;;;;4916321;29;20472;-77
2023/01/31 03:07:02;;;;;;;13.40;12.40;;;1.70;99.90;;;;;;4924172;29;20447;-76
2023/01/31 03:09:44;;;;;;;13.50;12.50;;;1.70;99.90;;;;;;4924656;29;20494;-76
2023/01/31 03:12:33;;;;;;;13.60;12.57;;;1.70;99.90;;;;;;4926388;29;20474;-77
2023/01/31 03:17:30;;;;;;;14.00;12.90;;;1.70;99.90;;;;;;4921822;29;20484;-73
2023/01/31 03:18:17;;;;;;;14.70;13.50;;;1.80;99.90;;;;;;4925024;29;20458;-76
2023/01/31 03:20:50;;;;;;;13.07;12.07;;;1.70;99.90;;;;;;4925304;29;20460;-77
2023/01/31 03:23:19;;;;;;;13.63;12.63;;;1.70;99.90;;;;;;4927735;29;20466;-77
2023/01/31 03:25:47;;;;;;;14.43;13.33;;;1.70;99.90;;;;;;4924805;29;20440;-76
2023/01/31 03:28:20;;;;;;;15.07;13.80;;;1.60;99.90;;;;;;4925878;29;20818;-76
2023/01/31 03:30:51;;;;;;;15.27;13.83;;;1.60;99.90;;;;;;4921928;29;20889;-77
2023/01/31 03:33:22;;;;;;;14.43;13.23;;;1.60;99.90;;;;;;4922214;29;20463;-76
2023/01/31 03:35:57;;;;;;;14.40;13.23;;;1.50;99.90;;;;;;4922810;29;20516;-77
2023/01/31 03:38:30;;;;;;;13.30;12.23;;;1.50;99.90;;;;;;4922609;29;20465;-77
2023/01/31 03:41:01;;;;;;;13.20;12.00;;;1.40;99.90;;;;;;4921159;29;20235;-81
2023/01/31 03:43:36;;;;;;;14.13;12.77;;;1.40;99.90;;;;;;4916495;29;20534;-76
2023/01/31 03:46:09;;;;;;;14.63;13.30;;;1.30;99.90;;;;;;4924659;29;20452;-77
2023/01/31 03:48:42;;;;;;;14.30;13.17;;;1.30;99.90;;;;;;4927034;29;20453;-76
2023/01/31 03:51:18;;;;;;;14.40;13.13;;;1.30;99.90;;;;;;4924388;29;20472;-79
2023/01/31 03:53:49;;;;;;;14.10;13.00;;;1.30;99.90;;;;;;4918000;29;20974;-79
2023/01/31 03:56:21;;;;;;;13.93;12.80;;;1.30;99.90;;;;;;4906740;29;20474;-80
2023/01/31 03:58:52;;;;;;;14.40;13.30;;;1.20;99.90;;;;;;4913386;29;20467;-81
2023/01/31 04:01:22;;;;;;;14.40;13.20;;;1.30;99.90;;;;;;4912373;29;20574;-80
2023/01/31 04:03:55;;;;;;;14.77;13.37;;;1.30;99.90;;;;;;4910610;29;20513;-79
2023/01/31 04:06:22;;;;;;;14.60;13.30;;;1.20;99.90;;;;;;4920359;29;20456;-80
2023/01/31 04:08:49;;;;;;;14.40;13.40;;;1.20;99.90;;;;;;4926298;29;20461;-81
2023/01/31 04:11:21;;;;;;;14.33;13.17;;;1.20;99.90;;;;;;4923381;29;20530;-80
2023/01/31 04:13:48;;;;;;;15.50;13.90;;;1.20;99.90;;;;;;4916862;29;20460;-80
2023/01/31 04:16:15;;;;;;;15.17;13.90;;;1.20;99.90;;;;;;4914779;29;20456;-82
2023/01/31 04:18:41;;;;;;;14.63;13.57;;;1.20;99.90;;;;;;4906748;29;20999;-81
2023/01/31 04:21:10;;;;;;;13.90;12.70;;;1.20;99.90;;;;;;4914404;29;20519;-79
2023/01/31 04:23:36;;;;;;;14.90;13.70;;;1.20;99.90;;;;;;4907985;29;20483;-79
2023/01/31 04:26:03;;;;;;;14.57;13.43;;;1.30;99.90;;;;;;4913678;29;20484;-80
2023/01/31 04:28:30;;;;;;;14.53;13.50;;;1.30;99.90;;;;;;4922300;29;20462;-81
2023/01/31 04:30:57;;;;;;;14.57;13.30;;;1.30;99.90;;;;;;4923103;29;20502;-80
2023/01/31 04:33:24;;;;;;;14.17;12.93;;;1.30;99.90;;;;;;4920156;29;21042;-80
2023/01/31 04:35:51;;;;;;;14.47;13.20;;;1.30;99.90;;;;;;4920577;28;20458;-81
2023/01/31 04:38:20;;;;;;;14.73;13.50;;;1.20;99.90;;;;;;4923067;29;20905;-80
2023/01/31 04:40:47;;;;;;;15.63;14.33;;;1.20;99.90;;;;;;4921909;29;20518;-81
2023/01/31 04:43:14;;;;;;;15.47;14.17;;;1.20;99.90;;;;;;4925619;29;21034;-81
2023/01/31 04:45:41;;;;;;;14.50;13.43;;;1.20;99.90;;;;;;4930331;29;20863;-81
2023/01/31 04:48:07;;;;;;;14.97;13.60;;;1.20;99.90;;;;;;4929504;29;20509;-81
2023/01/31 04:50:35;;;;;;;14.60;13.50;;;1.20;99.90;;;;;;4919364;29;20449;-82
2023/01/31 04:53:01;;;;;;;13.77;12.57;;;1.20;99.90;;;;;;4924586;29;20511;-81
2023/01/31 04:55:30;;;;;;;14.30;13.20;;;1.20;99.90;;;;;;4924056;29;20489;-82
2023/01/31 04:57:56;;;;;;;14.73;13.37;;;1.20;99.90;;;;;;4923976;29;20446;-81
2023/01/31 05:00:23;;;;;;;14.40;13.50;;;1.20;99.90;;;;;;4929774;29;20490;-82
2023/01/31 05:02:50;;;;;;;14.30;13.10;;;1.20;99.90;;;;;;4922090;29;20973;-81
2023/01/31 05:05:17;;;;;;;14.53;13.33;;;1.20;99.90;;;;;;4929309;29;21017;-80
2023/01/31 05:07:44;;;;;;;14.10;12.90;;;1.10;99.90;;;;;;4925916;29;20465;-81
2023/01/31 05:10:12;;;;;;;14.03;12.90;;;1.20;99.90;;;;;;4922541;28;20459;-81
2023/01/31 05:12:40;;;;;;;14.20;13.10;;;1.20;99.90;;;;;;4925115;29;20852;-81
2023/01/31 05:15:08;;;;;;;14.07;12.83;;;1.20;99.90;;;;;;4926968;29;20471;-81
2023/01/31 05:17:35;;;;;;;14.57;13.37;;;1.20;99.90;;;;;;4928518;29;20668;-81
2023/01/31 05:20:02;;;;;;;14.63;13.43;;;1.30;99.90;;;;;;4925603;29;20443;-79
2023/01/31 05:22:29;;;;;;;15.63;14.20;;;1.30;99.90;;;;;;4929234;29;20474;-80
2023/01/31 05:24:56;;;;;;;15.50;14.10;;;1.40;99.90;;;;;;4927099;29;20561;-80
2023/01/31 05:27:23;;;;;;;15.30;14.20;;;1.40;99.90;;;;;;4922229;29;20483;-81
2023/01/31 05:29:51;;;;;;;15.40;14.10;;;1.50;99.90;;;;;;4922515;28;20459;-81
2023/01/31 05:32:18;;;;;;;15.60;14.40;;;1.50;99.90;;;;;;4927735;29;20834;-81
2023/01/31 05:34:45;;;;;;;15.43;14.13;;;1.60;99.90;;;;;;4927634;29;20450;-82
2023/01/31 05:37:12;;;;;;;15.23;13.83;;;1.60;99.90;;;;;;4927080;29;20454;-81
2023/01/31 05:39:39;;;;;;;14.73;13.53;;;1.70;99.90;;;;;;4927369;29;20454;-80
2023/01/31 05:42:05;;;;;;;14.37;13.13;;;1.70;99.90;;;;;;4921618;29;20535;-81
2023/01/31 05:44:32;;;;;;;14.87;13.77;;;1.80;99.90;;;;;;4923682;29;20475;-81
2023/01/31 05:47:00;;;;;;;15.50;14.27;;;1.80;99.90;;;;;;4920756;28;20454;-81
2023/01/31 05:49:30;;;;;;;16.00;14.43;;;1.80;99.90;;;;;;4917812;29;20462;-82
2023/01/31 05:51:57;;;;;;;16.03;14.63;;;1.90;99.90;;;;;;4926859;29;20455;-82
2023/01/31 05:54:24;;;;;;;16.10;14.80;;;2.00;99.90;;;;;;4920071;29;20447;-81
2023/01/31 05:56:51;;;;;;;15.87;14.57;;;2.00;99.90;;;;;;4924554;29;20458;-81
2023/01/31 05:59:18;;;;;;;15.27;14.17;;;2.00;99.90;;;;;;4926955;28;20463;-81
2023/01/31 06:01:44;;;;;;;17.00;15.47;;;2.00;99.90;;;;;;4925829;29;20478;-80
2023/01/31 06:04:13;;;;;;;15.80;14.60;;;2.00;99.90;;;;;;4924136;28;20515;-81
2023/01/31 06:06:39;;;;;;;16.23;14.70;;;2.00;99.90;;;;;;4926662;29;20498;-82
2023/01/31 06:09:06;;;;;;;17.10;15.43;;;2.00;99.90;;;;;;4925489;29;20531;-81
2023/01/31 06:11:33;;;;;;;15.83;14.67;;;2.10;99.90;;;;;;4926476;29;20279;-82
2023/01/31 06:14:00;;;;;;;16.43;14.90;;;2.10;99.90;;;;;;4922302;29;20484;-80
2023/01/31 06:16:27;;;;;;;15.37;14.13;;;2.10;99.90;;;;;;4929549;29;20263;-82
2023/01/31 06:18:54;;;;;;;15.33;14.00;;;2.10;99.90;;;;;;4923444;29;20443;-81
2023/01/31 06:21:22;;;;;;;15.30;14.10;;;2.10;99.90;;;;;;4923357;29;20924;-82
2023/01/31 06:23:50;;;;;;;14.57;13.37;;;2.10;99.90;;;;;;4923970;29;20307;-82
2023/01/31 06:26:16;;;;;;;15.97;14.27;;;2.00;99.90;;;;;;4927451;29;20455;-82
2023/01/31 06:28:43;;;;;;;14.13;13.17;;;2.00;99.90;;;;;;4926786;29;20504;-81
2023/01/31 06:31:11;;;;;;;14.20;13.10;;;1.90;99.90;;;;;;4925915;29;20563;-81
2023/01/31 06:33:38;;;;;;;15.07;13.57;;;1.90;99.90;;;;;;4928489;29;20484;-82
2023/01/31 06:36:06;;;;;;;14.40;13.27;;;1.90;99.90;;;;;;4922184;29;20451;-82
2023/01/31 06:38:34;;;;;;;15.27;14.17;;;1.80;99.90;;;;;;4923482;29;20517;-81
2023/01/31 06:41:01;;;;;;;14.73;13.33;;;1.80;99.90;;;;;;4922315;29;20479;-81
2023/01/31 06:43:27;;;;;;;14.37;13.27;;;1.80;99.90;;;;;;4929225;29;20538;-82
2023/01/31 06:45:54;;;;;;;14.93;13.17;;;1.70;99.90;;;;;;4928900;29;20515;-80
2023/01/31 06:48:21;;;;;;;13.73;12.57;;;1.70;99.90;;;;;;4927850;29;20479;-82
2023/01/31 06:50:48;;;;;;;14.43;13.20;;;1.70;99.90;;;;;;4931195;29;20502;-82
2023/01/31 06:53:15;;;;;;;14.27;13.00;;;1.70;99.90;;;;;;4928414;29;20574;-80
2023/01/31 06:55:43;;;;;;;14.93;13.63;;;1.70;99.90;;;;;;4924063;29;20451;-81
2023/01/31 06:58:10;;;;;;;14.43;13.43;;;1.70;99.90;;;;;;4920484;29;20452;-81
2023/01/31 07:00:37;;;;;;;14.80;13.50;;;1.60;99.90;;;;;;4918790;29;20490;-80
2023/01/31 07:03:04;;;;;;;14.23;13.10;;;1.60;99.90;;;;;;4922224;29;20447;-81
2023/01/31 07:05:30;;;;;;;14.23;13.13;;;1.60;99.90;;;;;;4924046;29;20498;-82
2023/01/31 07:07:57;;;;;;;13.40;12.40;;;1.60;99.90;;;;;;4931749;29;20450;-78
2023/01/31 07:10:24;;;;;;;13.90;12.63;;;1.60;99.90;;;;;;4924630;29;20905;-81
2023/01/31 07:12:52;;;;;;;14.07;12.90;;;1.60;99.90;;;;;;4921750;29;20884;-79
2023/01/31 07:15:19;;;;;;;14.40;13.10;;;1.60;99.90;;;;;;4924660;29;20829;-81
2023/01/31 07:17:46;;;;;;;13.90;12.80;;;1.70;99.90;;;;;;4925002;29;20521;-81
2023/01/31 07:20:13;;;;;;;14.53;13.20;;;1.70;99.90;;;;;;4923268;29;20462;-81
2023/01/31 07:22:40;;;;;;;14.27;13.03;;;1.70;99.90;;;;;;4924127;29;20471;-80
2023/01/31 07:25:08;;;;;;;13.93;12.93;;;1.80;99.90;;;;;;4922479;29;20475;-82
2023/01/31 07:27:34;;;;;;;14.97;13.60;;;1.80;99.90;;;;;;4925170;29;20501;-79
2023/01/31 07:30:03;;;;;;;13.70;12.60;;;1.80;99.90;;;;;;4924741;29;20462;-83
2023/01/31 07:32:30;;;;;;;14.53;13.13;;;1.80;99.90;;;;;;4925930;29;20475;-78
2023/01/31 07:34:57;;;;;;;13.80;12.70;;;1.80;99.90;;;;;;4928102;29;20768;-77
2023/01/31 07:37:24;;;;;;;15.00;13.70;;;1.80;99.90;;;;;;4924001;29;20448;-77
2023/01/31 07:39:51;;;;;;;15.03;13.73;;;1.80;99.90;;;;;;4924754;29;20503;-77
2023/01/31 07:42:17;;;;;;;14.80;13.73;;;1.90;99.90;;;;;;4925637;29;20983;-77
2023/01/31 07:44:44;;;;;;;15.57;14.17;;;1.90;99.90;;;;;;4918768;29;21022;-77
2023/01/31 07:47:12;;;;;;;15.57;14.07;;;1.90;99.90;;;;;;4919409;29;20460;-78
2023/01/31 07:49:39;;;;;;;14.97;13.70;;;1.90;99.90;;;;;;4921277;29;20889;-78
2023/01/31 07:52:06;;;;;;;15.03;13.40;;;1.90;99.90;;;;;;4918978;28;20468;-77
2023/01/31 07:54:33;;;;;;;15.20;13.60;;;2.00;99.90;;;;;;4927169;29;20502;-77
2023/01/31 07:56:59;;;;;;;14.10;12.83;;;2.00;99.90;;;;;;4922566;28;20968;-78
2023/01/31 07:59:26;;;;;;;15.47;13.40;;;2.00;99.90;;;;;;4922924;29;20508;-78
2023/01/31 08:04:47;;;;;;;14.03;12.83;;;2.10;99.90;;;;;;4894694;29;20480;-80
2023/01/31 08:07:14;;;;;;;15.37;13.73;;;2.10;99.90;;;;;;4922185;29;20442;-81
2023/01/31 08:09:42;;;;;;;15.60;14.10;;;2.20;99.90;;;;;;4925946;28;20463;-82
2023/01/31 08:12:09;;;;;;;14.37;13.07;;;2.20;99.90;;;;;;4925635;29;20467;-81
2023/01/31 08:14:35;;;;;;;15.27;14.00;;;2.40;99.90;;;;;;4925385;28;20503;-79
2023/01/31 08:17:02;;;;;;;14.77;13.33;;;2.50;99.90;;;;;;4927752;29;20439;-78
2023/01/31 08:19:29;;;;;;;14.10;12.80;;;2.50;99.90;;;;;;4921174;29;20431;-77
2023/01/31 08:21:57;;;;;;;14.73;13.40;;;2.70;99.90;;;;;;4927387;28;20475;-77
2023/01/31 08:24:24;;;;;;;14.60;13.40;;;2.80;99.90;;;;;;4924368;29;20494;-78
2023/01/31 08:26:51;;;;;;;16.93;14.93;;;2.90;99.90;;;;;;4924480;29;20224;-76
2023/01/31 08:29:18;;;;;;;14.60;13.50;;;3.30;99.90;;;;;;4926812;29;20454;-78
2023/01/31 08:31:45;;;;;;;15.10;13.87;;;3.70;99.90;;;;;;4923227;29;20224;-77
2023/01/31 08:34:12;;;;;;;16.73;14.33;;;4.10;99.90;;;;;;4927979;29;20258;-79
2023/01/31 08:36:38;;;;;;;15.97;14.40;;;4.50;99.90;;;;;;4925730;29;20617;-82
2023/01/31 08:39:07;;;;;;;15.40;13.80;;;4.90;99.90;;;;;;4923696;29;20207;-82
2023/01/31 08:41:35;;;;;;;15.67;14.23;;;5.20;99.90;;;;;;4916762;29;20237;-81
2023/01/31 08:44:03;;;;;;;15.63;14.03;;;5.70;99.90;;;;;;4916089;28;20304;-81
2023/01/31 08:46:32;;;;;;;14.80;13.60;;;6.10;99.90;;;;;;4926540;29;20208;-82
2023/01/31 08:48:59;;;;;;;14.77;13.37;;;6.40;99.90;;;;;;4923226;29;20653;-81
2023/01/31 08:51:26;;;;;;;15.30;13.37;;;6.50;99.90;;;;;;4927261;29;20285;-82
2023/01/31 08:53:53;;;;;;;15.50;14.20;;;6.90;99.90;;;;;;4928416;28;20197;-81
2023/01/31 08:56:24;;;;;;;14.33;13.23;;;7.10;99.90;;;;;;4924607;29;20734;-81
2023/01/31 08:58:52;;;;;;;14.27;13.17;;;7.00;99.90;;;;;;4917307;29;20201;-82
2023/01/31 09:01:21;;;;;;;15.70;13.10;;;7.00;99.90;;;;;;4916838;29;20241;-82
2023/01/31 09:03:49;;;;;;;13.73;12.53;;;7.20;99.90;;;;;;4924377;29;20215;-82
2023/01/31 09:06:17;;;;;;;15.43;13.47;;;7.20;99.90;;;;;;4926870;29;20219;-82
2023/01/31 09:08:44;;;;;;;14.03;12.33;;;7.10;99.90;;;;;;4928661;28;20273;-81
2023/01/31 09:11:15;;;;;;;13.83;12.63;;;6.90;99.90;;;;;;4925144;29;20667;-82
2023/01/31 09:13:44;;;;;;;13.90;12.30;;;6.50;99.90;;;;;;4926759;29;20206;-81
2023/01/31 09:16:12;;;;;;;13.73;12.67;;;6.10;99.90;;;;;;4927395;29;20229;-81
2023/01/31 09:18:40;;;;;;;13.27;12.23;;;6.10;99.90;;;;;;4929115;29;20250;-81
2023/01/31 09:21:09;;;;;;;12.80;11.70;;;5.90;99.90;;;;;;4919615;29;20234;-83
2023/01/31 09:23:37;;;;;;;13.50;12.20;;;5.90;99.90;;;;;;4927768;29;20210;-82
2023/01/31 09:26:04;;;;;;;15.10;13.60;;;5.80;99.90;;;;;;4923704;29;20661;-81
2023/01/31 09:28:31;;;;;;;15.10;13.70;;;5.70;99.90;;;;;;4929293;29;20732;-82
2023/01/31 09:31:04;;;;;;;13.27;12.27;;;5.70;99.90;;;;;;4927279;29;20285;-82
2023/01/31 09:33:32;;;;;;;12.30;11.20;;;5.70;99.90;;;;;;4932042;29;20202;-83
2023/01/31 09:36:01;;;;;;;13.20;11.90;;;5.70;99.90;;;;;;4931331;29;20213;-82
2023/01/31 09:38:28;;;;;;;14.13;11.30;;;5.50;99.90;;;;;;4923797;29;20636;-82
2023/01/31 09:40:57;;;;;;;12.57;11.37;;;5.50;99.90;;;;;;4930774;29;20234;-82
2023/01/31 09:43:28;;;;;;;12.87;11.20;;;5.50;99.90;;;;;;4925018;29;20273;-82
2023/01/31 09:45:59;;;;;;;12.40;11.27;;;5.70;99.90;;;;;;4927148;29;20278;-77
2023/01/31 09:48:33;;;;;;;12.20;11.03;;;6.00;99.90;;;;;;4927400;29;20259;-77
2023/01/31 09:51:02;;;;;;;11.97;11.07;;;6.30;99.90;;;;;;4925187;29;20253;-77
2023/01/31 09:53:32;;;;;;;12.70;11.40;;;6.50;99.90;;;;;;4928165;29;20205;-77
2023/01/31 09:56:29;;;;;;;11.97;10.97;;;6.60;99.90;;;;;;4927616;29;20254;-77
2023/01/31 09:59:03;;;;;;;11.70;10.60;;;6.60;99.90;;;;;;4910340;29;20211;-77
2023/01/31 10:01:38;;;;;;;12.53;11.43;;;6.40;99.90;;;;;;4912153;29;20226;-77
2023/01/31 10:04:22;;;;;;;13.07;11.70;;;6.50;99.90;;;;;;4926185;29;20691;-77
2023/01/31 10:06:57;;;;;;;12.33;11.17;;;6.40;99.90;;;;;;4917264;29;20212;-77
2023/01/31 10:09:30;;;;;;;12.77;11.57;;;6.60;99.90;;;;;;4927312;29;20192;-77
2023/01/31 10:12:00;;;;;;;13.43;12.03;;;6.70;99.90;;;;;;4926514;29;20313;-78
2023/01/31 10:14:33;;;;;;;12.17;11.17;;;6.70;99.90;;;;;;4925129;29;20290;-78
2023/01/31 10:17:10;;;;;;;13.00;11.83;;;6.90;99.90;;;;;;4924418;29;20210;-77
2023/01/31 10:19:43;;;;;;;12.53;11.30;;;6.90;99.90;;;;;;4917782;29;20209;-77
2023/01/31 10:22:15;;;;;;;11.93;10.93;;;6.90;99.90;;;;;;4923773;29;20557;-78
2023/01/31 10:24:47;;;;;;;12.77;11.50;;;6.90;99.90;;;;;;4925465;29;20637;-77
2023/01/31 10:27:20;;;;;;;11.97;10.93;;;6.90;99.90;;;;;;4926500;29;20207;-78
2023/01/31 10:29:52;;;;;;;11.97;10.97;;;6.90;99.90;;;;;;4929232;29;20278;-77
2023/01/31 10:32:26;;;;;;;12.70;11.70;;;6.90;99.90;;;;;;4926956;29;20225;-77
2023/01/31 10:34:59;;;;;;;12.00;11.10;;;6.90;99.90;;;;;;4926251;29;20674;-77
2023/01/31 10:37:32;;;;;;;12.23;11.20;;;6.80;99.90;;;;;;4925259;29;20259;-77
2023/01/31 10:40:03;;;;;;;11.93;10.83;;;6.80;99.90;;;;;;4928963;29;20233;-77
2023/01/31 10:42:32;;;;;;;11.90;10.90;;;6.90;99.90;;;;;;4917817;29;20251;-77
2023/01/31 10:45:05;;;;;;;12.80;11.50;;;6.90;99.90;;;;;;4923475;29;20230;-77
2023/01/31 10:47:34;;;;;;;13.57;12.50;;;6.80;99.90;;;;;;4915656;29;20204;-77
2023/01/31 10:50:11;;;;;;;13.33;12.33;;;6.70;99.90;;;;;;4926993;29;20207;-77
2023/01/31 10:52:57;;;;;;;13.47;12.33;;;6.60;99.90;;;;;;4923168;29;20703;-77
2023/01/31 10:55:47;;;;;;;12.77;11.60;;;6.40;99.90;;;;;;4910633;29;20197;-77
2023/01/31 10:58:17;;;;;;;12.53;11.50;;;6.30;99.90;;;;;;4923668;29;20222;-77
2023/01/31 11:00:46;;;;;;;12.60;11.80;;;6.40;99.90;;;;;;4922505;29;20225;-77
2023/01/31 11:03:13;;;;;;;12.13;11.30;;;6.50;99.90;;;;;;4926727;29;20237;-77
2023/01/31 11:05:47;;;;;;;13.03;11.73;;;6.60;99.90;;;;;;4922057;29;20874;-76
2023/01/31 11:08:24;;;;;;;14.47;11.90;;;6.70;99.90;;;;;;4928060;29;20229;-77
2023/01/31 11:10:53;;;;;;;12.60;11.63;;;6.80;99.90;;;;;;4924587;29;20229;-77
2023/01/31 11:13:21;;;;;;;12.77;11.67;;;6.80;99.90;;;;;;4926046;29;20236;-77
2023/01/31 11:15:48;;;;;;;12.23;11.17;;;6.70;99.90;;;;;;4924553;29;20207;-77
2023/01/31 11:18:25;;;;;;;12.43;11.37;;;6.60;99.90;;;;;;4924653;29;20264;-77
2023/01/31 11:20:53;;;;;;;11.97;11.00;;;6.50;99.90;;;;;;4924395;29;20281;-77
2023/01/31 11:23:24;;;;;;;11.67;10.70;;;6.60;99.90;;;;;;4921347;29;20217;-77
2023/01/31 11:25:54;;;;;;;11.60;10.57;;;6.60;99.90;;;;;;4927903;28;20220;-77
2023/01/31 11:28:23;;;;;;;12.20;11.20;;;6.70;99.90;;;;;;4922410;29;20275;-77
2023/01/31 11:30:53;;;;;;;11.17;10.27;;;6.80;99.90;;;;;;4921749;29;20343;-77
2023/01/31 11:33:38;;;;;;;11.57;10.57;;;6.90;99.90;;;;;;4928325;29;20192;-77
2023/01/31 11:36:11;;;;;;;11.53;10.60;;;7.00;99.90;;;;;;4926526;29;20203;-78
2023/01/31 11:38:39;;;;;;;10.67;9.80;;;7.00;99.90;;;;;;4927531;29;20844;-78
2023/01/31 11:41:31;;;;;;;10.97;9.87;;;7.00;99.90;;;;;;4927138;29;20291;-78
2023/01/31 11:44:11;;;;;;;11.30;10.40;;;7.10;99.90;;;;;;4922684;29;20238;-78
2023/01/31 11:46:50;;;;;;;11.40;10.30;;;7.20;99.90;;;;;;4925909;29;20227;-78
2023/01/31 11:49:28;;;;;;;12.40;11.30;;;7.30;99.90;;;;;;4925428;29;20202;-78
2023/01/31 11:51:57;;;;;;;11.33;10.40;;;7.30;99.90;;;;;;4926000;29;20226;-78
2023/01/31 11:54:28;;;;;;;11.40;10.50;;;7.30;99.90;;;;;;4924948;29;20259;-78
2023/01/31 11:56:55;;;;;;;10.60;9.70;;;7.30;99.90;;;;;;4927954;29;20207;-78
2023/01/31 11:59:25;;;;;;;11.00;10.00;;;7.30;99.90;;;;;;4924652;29;20211;-78
2023/01/31 12:01:54;;;;;;;10.87;9.97;;;7.30;99.90;;;;;;4919269;29;20250;-78
2023/01/31 12:04:24;;;;;;;11.67;10.73;;;7.30;99.90;;;;;;4932034;29;20215;-77
2023/01/31 12:07:03;;;;;;;11.20;10.40;;;7.40;99.90;;;;;;4924885;29;20737;-78
2023/01/31 12:09:39;;;;;;;11.30;10.50;;;7.40;99.90;;;;;;4925011;29;20207;-75
2023/01/31 12:12:22;;;;;;;11.77;10.60;;;7.50;99.90;;;;;;4923158;29;20282;-77
2023/01/31 12:14:49;;;;;;;13.00;10.80;;;7.40;99.90;;;;;;4924714;29;20694;-77
2023/01/31 12:17:19;;;;;;;11.90;11.00;;;7.50;99.90;;;;;;4925775;29;20291;-76
2023/01/31 12:19:57;;;;;;;12.13;11.13;;;7.50;99.90;;;;;;4921673;29;20207;-77
2023/01/31 12:22:31;;;;;;;11.90;10.90;;;7.40;99.90;;;;;;4923873;29;20226;-77
2023/01/31 12:25:08;;;;;;;12.20;10.93;;;7.30;99.90;;;;;;4931713;29;20202;-77
2023/01/31 12:27:46;;;;;;;13.40;11.00;;;7.30;99.90;;;;;;4937133;29;20778;-77
2023/01/31 12:30:39;;;;;;;15.70;10.90;;;7.30;99.90;;;;;;4924321;29;20207;-77
2023/01/31 12:33:23;;;;;;;10.90;10.20;;;7.20;99.90;;;;;;4926674;29;20274;-77
2023/01/31 12:36:02;;;;;;;11.43;10.53;;;7.00;99.90;;;;;;4927868;29;20207;-77
2023/01/31 12:38:45;;;;;;;12.27;10.83;;;7.00;99.90;;;;;;4921492;29;20251;-77
2023/01/31 12:41:23;;;;;;;11.57;10.63;;;6.80;99.90;;;;;;4928333;29;20286;-78
2023/01/31 12:44:09;;;;;;;11.00;10.10;;;6.70;99.90;;;;;;4927778;29;20751;-77
2023/01/31 12:46:45;;;;;;;10.90;10.10;;;6.70;99.90;;;;;;4921250;29;20313;-76
2023/01/31 12:49:35;;;;;;;11.47;10.57;;;6.80;99.90;;;;;;4930036;29;20207;-77
2023/01/31 12:52:09;;;;;;;11.63;10.53;;;7.00;99.90;;;;;;4924996;29;20278;-77
2023/01/31 12:54:51;;;;;;;11.50;10.60;;;7.30;99.90;;;;;;4922833;29;20205;-77
2023/01/31 12:57:31;;;;;;;12.20;10.87;;;7.40;99.90;;;;;;4918057;29;20278;-77
2023/01/31 13:00:12;;;;;;;11.40;10.50;;;7.40;99.90;;;;;;4924357;29;20199;-76
2023/01/31 13:02:45;;;;;;;11.60;10.60;;;7.30;99.90;;;;;;4938588;29;20297;-77
2023/01/31 13:05:24;;;;;;;11.63;10.63;;;7.30;99.90;;;;;;4929643;29;20199;-76
2023/01/31 13:07:53;;;;;;;11.80;10.70;;;7.20;99.90;;;;;;4933971;29;20202;-77
2023/01/31 13:10:32;;;;;;;11.67;10.53;;;7.10;99.90;;;;;;4940823;28;20210;-77
2023/01/31 13:13:00;;;;;;;11.23;10.33;;;7.10;99.90;;;;;;4943550;29;20187;-77
2023/01/31 13:15:34;;;;;;;11.17;10.27;;;7.10;99.90;;;;;;4929317;29;20680;-77
2023/01/31 13:18:05;;;;;;;10.90;10.20;;;7.10;99.90;;;;;;4923818;29;20215;-78
2023/01/31 13:20:35;;;;;;;11.47;10.47;;;7.10;99.90;;;;;;4938769;29;20240;-77
2023/01/31 13:23:06;;;;;;;10.93;10.03;;;7.10;99.90;;;;;;4929120;28;20211;-77
2023/01/31 13:25:38;;;;;;;11.57;10.37;;;7.10;99.90;;;;;;4937386;29;20250;-78
2023/01/31 13:28:12;;;;;;;11.87;10.27;;;7.10;99.90;;;;;;4931085;29;20210;-77
2023/01/31 13:30:45;;;;;;;10.93;10.17;;;7.00;99.90;;;;;;4929879;29;20209;-77
2023/01/31 13:33:23;;;;;;;11.47;10.50;;;6.90;99.90;;;;;;4921665;28;20211;-80
2023/01/31 13:35:57;;;;;;;11.80;10.90;;;6.80;99.90;;;;;;4931545;29;20663;-78
2023/01/31 13:38:29;;;;;;;11.17;10.30;;;6.50;99.90;;;;;;4924175;29;20231;-76
2023/01/31 13:40:57;;;;;;;12.07;11.00;;;6.40;99.90;;;;;;4924957;29;20289;-77
2023/01/31 13:43:24;;;;;;;12.43;11.03;;;6.30;99.90;;;;;;4929085;29;20202;-77
2023/01/31 13:45:56;;;;;;;11.67;10.63;;;6.20;99.90;;;;;;4927230;29;20255;-77
2023/01/31 13:48:27;;;;;;;11.70;10.60;;;6.10;99.90;;;;;;4927917;29;20215;-77
2023/01/31 13:51:00;;;;;;;11.33;10.47;;;6.20;99.90;;;;;;4926311;29;20280;-77
2023/01/31 13:53:30;;;;;;;11.57;10.77;;;6.20;99.90;;;;;;4930767;29;20258;-77
2023/01/31 13:56:00;;;;;;;11.90;10.90;;;6.20;99.90;;;;;;4928309;29;20273;-77
2023/01/31 13:58:30;;;;;;;12.17;11.27;;;6.20;99.90;;;;;;4915642;29;20202;-79
2023/01/31 14:01:02;;;;;;;11.80;10.90;;;6.20;99.90;;;;;;4921131;29;20235;-80
2023/01/31 14:03:29;;;;;;;11.90;11.00;;;6.10;99.90;;;;;;4919236;29;20201;-80
2023/01/31 14:06:00;;;;;;;12.37;11.30;;;6.00;99.90;;;;;;4925822;28;20214;-80
2023/01/31 14:08:52;;;;;;;11.43;10.57;;;6.00;99.90;;;;;;4927941;29;20209;-80
2023/01/31 14:11:44;;;;;;;11.80;10.90;;;5.90;99.90;;;;;;4926747;29;20229;-81
2023/01/31 14:14:29;;;;;;;12.13;11.00;;;5.80;99.90;;;;;;4923573;29;20214;-80
2023/01/31 14:16:56;;;;;;;12.17;11.17;;;5.80;99.90;;;;;;4923376;29;20569;-76
2023/01/31 14:20:00;;;;;;;11.93;11.00;;;5.70;99.90;;;;;;4927333;29;20200;-76
2023/01/31 14:22:30;;;;;;;11.83;10.93;;;5.70;99.90;;;;;;4925335;29;20585;-77
2023/01/31 14:24:59;;;;;;;13.10;11.90;;;5.60;99.90;;;;;;4926051;29;20202;-76
2023/01/31 14:27:32;;;;;;;11.53;10.63;;;5.50;99.90;;;;;;4928072;29;20221;-77
2023/01/31 14:30:09;;;;;;;11.93;11.03;;;5.40;99.90;;;;;;4920213;29;20212;-76
2023/01/31 14:32:40;;;;;;;13.70;11.33;;;5.30;99.90;;;;;;4923509;29;20228;-76
2023/01/31 14:35:29;;;;;;;11.93;11.03;;;5.30;99.90;;;;;;4922810;29;20632;-77
2023/01/31 14:38:07;;;;;;;13.37;10.90;;;5.20;99.90;;;;;;4930225;29;20200;-77
2023/01/31 14:40:40;;;;;;;12.57;11.47;;;5.30;99.90;;;;;;4919411;29;20199;-76
2023/01/31 14:43:35;;;;;;;11.10;10.40;;;5.30;99.90;;;;;;4922160;29;20203;-77
2023/01/31 14:46:37;;;;;;;11.90;11.00;;;5.30;99.90;;;;;;4926796;29;20282;-79
2023/01/31 14:49:27;;;;;;;12.23;11.13;;;5.30;99.90;;;;;;4882852;29;20278;-79
2023/01/31 14:52:17;;;;;;;13.17;11.97;;;5.30;99.90;;;;;;4928997;29;20234;-79
2023/01/31 14:54:59;;;;;;;12.60;11.50;;;5.30;99.90;;;;;;4918820;29;20275;-79
2023/01/31 14:57:28;;;;;;;12.20;11.00;;;5.30;99.90;;;;;;4916517;29;20231;-79
2023/01/31 15:00:00;;;;;;;12.30;11.30;;;5.30;99.90;;;;;;4923872;29;20271;-80
2023/01/31 15:02:54;;;;;;;12.73;11.60;;;5.30;99.90;;;;;;4930985;29;20225;-78
2023/01/31 15:05:37;;;;;;;13.07;11.90;;;5.30;99.90;;;;;;4915416;29;20275;-79
2023/01/31 15:08:26;;;;;;;12.47;11.53;;;5.40;99.90;;;;;;4928242;29;20225;-78
2023/01/31 15:10:57;;;;;;;12.23;11.13;;;5.30;99.90;;;;;;4923537;29;20227;-79
2023/01/31 15:13:37;;;;;;;13.23;12.13;;;5.30;99.90;;;;;;4918246;29;20200;-76
2023/01/31 15:16:08;;;;;;;12.50;11.40;;;5.30;99.90;;;;;;4915283;29;20212;-76
2023/01/31 15:18:35;;;;;;;12.70;11.70;;;5.30;99.90;;;;;;4909174;29;20209;-77
2023/01/31 15:21:07;;;;;;;12.70;11.40;;;5.30;99.90;;;;;;4912708;29;20224;-76
2023/01/31 15:23:37;;;;;;;12.83;11.83;;;5.20;99.90;;;;;;4918065;29;20214;-78
2023/01/31 15:26:07;;;;;;;12.43;11.43;;;5.20;99.90;;;;;;4924658;29;20571;-77
2023/01/31 15:28:37;;;;;;;12.13;11.27;;;5.10;99.90;;;;;;4921133;29;20554;-76
2023/01/31 15:31:12;;;;;;;13.27;12.17;;;5.10;99.90;;;;;;4929704;29;20614;-78
2023/01/31 15:33:44;;;;;;;12.87;11.80;;;5.10;99.90;;;;;;4910130;29;20268;-77
2023/01/31 15:36:18;;;;;;;13.33;12.20;;;5.20;99.90;;;;;;4931001;29;20212;-77
2023/01/31 15:38:52;;;;;;;13.20;12.23;;;5.10;99.90;;;;;;4926419;28;20236;-77
2023/01/31 15:41:22;;;;;;;12.90;11.70;;;5.10;99.90;;;;;;4930508;29;20237;-77
2023/01/31 15:43:52;;;;;;;13.03;11.83;;;5.10;99.90;;;;;;4925068;29;20251;-77
2023/01/31 15:46:25;;;;;;;12.67;11.67;;;5.10;99.90;;;;;;4927161;29;20205;-77
2023/01/31 15:48:52;;;;;;;13.40;12.17;;;5.10;99.90;;;;;;4927431;29;20291;-77
2023/01/31 15:51:20;;;;;;;13.70;12.50;;;5.10;99.90;;;;;;4926406;29;20247;-77
2023/01/31 15:53:48;;;;;;;13.17;12.07;;;5.00;99.90;;;;;;4928278;29;20284;-77
2023/01/31 15:56:23;;;;;;;13.43;12.20;;;5.00;99.90;;;;;;4925299;29;20623;-78
2023/01/31 15:58:52;;;;;;;12.23;11.23;;;4.90;99.90;;;;;;4928627;29;20207;-77
2023/01/31 16:01:19;;;;;;;12.57;11.70;;;4.90;99.90;;;;;;4921238;29;20292;-78
2023/01/31 16:03:52;;;;;;;13.07;11.90;;;4.80;99.90;;;;;;4928453;29;20207;-78